sensor_id;sensor_type;location;lat;lon;timestamp;P1;durP1;ratioP1;P2;durP2;ratioP2
37593;SDS011;23441;50.856;6.076;2023-03-01T00:01:29;16.60;;;8.70;;
37593;SDS011;23441;50.856;6.076;2023-03-01T00:03:55;13.67;;;9.10;;
37593;SDS011;23441;50.856;6.076;2023-03-01T00:06:22;18.83;;;8.50;;
37593;SDS011;23441;50.856;6.076;2023-03-01T00:08:48;15.10;;;8.67;;
37593;SDS011;23441;50.856;6.076;2023-03-01T00:13:45;14.30;;;8.83;;
37593;SDS011;23441;50.856;6.076;2023-03-01T00:16:13;13.93;;;8.77;;
37593;SDS011;23441;50.856;6.076;2023-03-01T00:18:46;13.90;;;8.60;;
37593;SDS011;23441;50.856;6.076;2023-03-01T00:21:12;14.83;;;9.37;;
37593;SDS011;23441;50.856;6.076;2023-03-01T00:23:39;16.37;;;9.53;;
37593;SDS011;23441;50.856;6.076;2023-03-01T00:26:05;17.13;;;9.33;;
37593;SDS011;23441;50.856;6.076;2023-03-01T00:28:33;16.60;;;9.47;;
37593;SDS011;23441;50.856;6.076;2023-03-01T00:31:03;17.90;;;10.03;;
37593;SDS011;23441;50.856;6.076;2023-03-01T00:33:33;16.07;;;9.67;;
37593;SDS011;23441;50.856;6.076;2023-03-01T00:35:59;17.33;;;10.00;;
37593;SDS011;23441;50.856;6.076;2023-03-01T00:38:25;14.30;;;9.07;;
37593;SDS011;23441;50.856;6.076;2023-03-01T00:40:51;18.20;;;9.63;;
37593;SDS011;23441;50.856;6.076;2023-03-01T00:43:16;14.97;;;9.60;;
37593;SDS011;23441;50.856;6.076;2023-03-01T00:45:43;17.43;;;9.63;;
37593;SDS011;23441;50.856;6.076;2023-03-01T00:48:08;25.03;;;10.53;;
37593;SDS011;23441;50.856;6.076;2023-03-01T00:50:34;15.17;;;10.50;;
37593;SDS011;23441;50.856;6.076;2023-03-01T00:52:59;21.13;;;11.00;;
37593;SDS011;23441;50.856;6.076;2023-03-01T00:55:25;17.13;;;10.63;;
37593;SDS011;23441;50.856;6.076;2023-03-01T00:57:51;20.70;;;9.80;;
37593;SDS011;23441;50.856;6.076;2023-03-01T01:00:17;15.33;;;10.10;;
37593;SDS011;23441;50.856;6.076;2023-03-01T01:02:44;17.23;;;10.60;;
37593;SDS011;23441;50.856;6.076;2023-03-01T01:05:09;14.63;;;9.43;;
37593;SDS011;23441;50.856;6.076;2023-03-01T01:07:36;15.10;;;10.17;;
37593;SDS011;23441;50.856;6.076;2023-03-01T01:10:02;17.33;;;10.30;;
37593;SDS011;23441;50.856;6.076;2023-03-01T01:12:28;17.10;;;10.07;;
37593;SDS011;23441;50.856;6.076;2023-03-01T01:14:54;13.63;;;9.63;;
37593;SDS011;23441;50.856;6.076;2023-03-01T01:17:19;17.77;;;10.37;;
37593;SDS011;23441;50.856;6.076;2023-03-01T01:19:45;18.77;;;9.57;;
37593;SDS011;23441;50.856;6.076;2023-03-01T01:22:10;15.30;;;9.53;;
37593;SDS011;23441;50.856;6.076;2023-03-01T01:24:36;17.63;;;9.97;;
37593;SDS011;23441;50.856;6.076;2023-03-01T01:27:02;14.70;;;9.93;;
37593;SDS011;23441;50.856;6.076;2023-03-01T01:29:27;14.53;;;9.63;;
37593;SDS011;23441;50.856;6.076;2023-03-01T01:31:53;17.23;;;9.90;;
37593;SDS011;23441;50.856;6.076;2023-03-01T01:34:19;16.97;;;9.20;;
37593;SDS011;23441;50.856;6.076;2023-03-01T01:36:49;23.67;;;10.33;;
37593;SDS011;23441;50.856;6.076;2023-03-01T01:39:16;16.80;;;10.23;;
37593;SDS011;23441;50.856;6.076;2023-03-01T01:41:41;15.53;;;10.03;;
37593;SDS011;23441;50.856;6.076;2023-03-01T01:46:40;16.00;;;9.37;;
37593;SDS011;23441;50.856;6.076;2023-03-01T01:51:43;19.17;;;10.47;;
37593;SDS011;23441;50.856;6.076;2023-03-01T01:54:26;20.40;;;10.17;;
37593;SDS011;23441;50.856;6.076;2023-03-01T01:56:57;18.30;;;9.53;;
37593;SDS011;23441;50.856;6.076;2023-03-01T01:59:26;16.03;;;9.97;;
37593;SDS011;23441;50.856;6.076;2023-03-01T02:01:54;15.97;;;9.43;;
37593;SDS011;23441;50.856;6.076;2023-03-01T02:04:21;18.50;;;9.80;;
37593;SDS011;23441;50.856;6.076;2023-03-01T02:07:01;23.63;;;10.07;;
37593;SDS011;23441;50.856;6.076;2023-03-01T02:09:38;14.27;;;9.30;;
37593;SDS011;23441;50.856;6.076;2023-03-01T02:12:06;19.00;;;10.40;;
37593;SDS011;23441;50.856;6.076;2023-03-01T02:14:32;17.67;;;9.63;;
37593;SDS011;23441;50.856;6.076;2023-03-01T02:16:57;13.83;;;9.30;;
37593;SDS011;23441;50.856;6.076;2023-03-01T02:22:15;14.93;;;9.67;;
37593;SDS011;23441;50.856;6.076;2023-03-01T02:27:36;17.53;;;9.90;;
37593;SDS011;23441;50.856;6.076;2023-03-01T02:30:08;17.47;;;9.90;;
37593;SDS011;23441;50.856;6.076;2023-03-01T02:32:37;17.80;;;10.00;;
37593;SDS011;23441;50.856;6.076;2023-03-01T02:35:07;16.80;;;9.90;;
37593;SDS011;23441;50.856;6.076;2023-03-01T02:37:35;16.73;;;10.13;;
37593;SDS011;23441;50.856;6.076;2023-03-01T02:40:02;17.30;;;10.70;;
37593;SDS011;23441;50.856;6.076;2023-03-01T02:42:31;15.93;;;10.10;;
37593;SDS011;23441;50.856;6.076;2023-03-01T02:45:01;18.87;;;10.97;;
37593;SDS011;23441;50.856;6.076;2023-03-01T02:47:28;16.27;;;9.80;;
37593;SDS011;23441;50.856;6.076;2023-03-01T02:49:53;15.83;;;10.13;;
37593;SDS011;23441;50.856;6.076;2023-03-01T02:57:31;19.87;;;11.10;;
37593;SDS011;23441;50.856;6.076;2023-03-01T02:59:59;17.47;;;10.80;;
37593;SDS011;23441;50.856;6.076;2023-03-01T03:02:32;20.10;;;11.27;;
37593;SDS011;23441;50.856;6.076;2023-03-01T03:05:02;18.13;;;10.97;;
37593;SDS011;23441;50.856;6.076;2023-03-01T03:07:33;22.43;;;11.90;;
37593;SDS011;23441;50.856;6.076;2023-03-01T03:10:04;18.00;;;11.50;;
37593;SDS011;23441;50.856;6.076;2023-03-01T03:12:32;22.53;;;12.33;;
37593;SDS011;23441;50.856;6.076;2023-03-01T03:14:57;19.53;;;11.00;;
37593;SDS011;23441;50.856;6.076;2023-03-01T03:17:23;23.47;;;11.80;;
37593;SDS011;23441;50.856;6.076;2023-03-01T03:19:49;20.80;;;11.63;;
37593;SDS011;23441;50.856;6.076;2023-03-01T03:22:15;20.50;;;12.00;;
37593;SDS011;23441;50.856;6.076;2023-03-01T03:24:40;19.07;;;11.23;;
37593;SDS011;23441;50.856;6.076;2023-03-01T03:27:06;19.60;;;11.40;;
37593;SDS011;23441;50.856;6.076;2023-03-01T03:29:32;20.20;;;11.47;;
37593;SDS011;23441;50.856;6.076;2023-03-01T03:31:58;17.83;;;11.17;;
37593;SDS011;23441;50.856;6.076;2023-03-01T03:34:24;20.30;;;11.53;;
37593;SDS011;23441;50.856;6.076;2023-03-01T03:36:54;21.53;;;12.07;;
37593;SDS011;23441;50.856;6.076;2023-03-01T03:39:24;19.13;;;11.87;;
37593;SDS011;23441;50.856;6.076;2023-03-01T03:41:52;20.87;;;12.10;;
37593;SDS011;23441;50.856;6.076;2023-03-01T03:44:18;23.00;;;12.37;;
37593;SDS011;23441;50.856;6.076;2023-03-01T03:46:45;18.23;;;11.73;;
37593;SDS011;23441;50.856;6.076;2023-03-01T03:49:10;25.07;;;11.57;;
37593;SDS011;23441;50.856;6.076;2023-03-01T03:51:36;23.17;;;12.60;;
37593;SDS011;23441;50.856;6.076;2023-03-01T03:54:02;17.77;;;11.63;;
37593;SDS011;23441;50.856;6.076;2023-03-01T03:56:27;21.13;;;11.97;;
37593;SDS011;23441;50.856;6.076;2023-03-01T03:58:53;21.57;;;11.17;;
37593;SDS011;23441;50.856;6.076;2023-03-01T04:01:18;18.80;;;12.33;;
37593;SDS011;23441;50.856;6.076;2023-03-01T04:03:44;22.47;;;12.60;;
37593;SDS011;23441;50.856;6.076;2023-03-01T04:06:13;22.37;;;11.90;;
37593;SDS011;23441;50.856;6.076;2023-03-01T04:08:39;19.80;;;12.33;;
37593;SDS011;23441;50.856;6.076;2023-03-01T04:11:05;22.23;;;13.03;;
37593;SDS011;23441;50.856;6.076;2023-03-01T04:13:50;25.77;;;13.83;;
37593;SDS011;23441;50.856;6.076;2023-03-01T04:16:17;21.73;;;12.20;;
37593;SDS011;23441;50.856;6.076;2023-03-01T04:18:43;19.83;;;12.30;;
37593;SDS011;23441;50.856;6.076;2023-03-01T04:21:09;21.23;;;12.60;;
37593;SDS011;23441;50.856;6.076;2023-03-01T04:23:36;18.27;;;12.30;;
37593;SDS011;23441;50.856;6.076;2023-03-01T04:26:02;24.63;;;13.80;;
37593;SDS011;23441;50.856;6.076;2023-03-01T04:28:38;21.30;;;13.13;;
37593;SDS011;23441;50.856;6.076;2023-03-01T04:31:17;20.97;;;12.40;;
37593;SDS011;23441;50.856;6.076;2023-03-01T04:33:53;23.53;;;12.83;;
37593;SDS011;23441;50.856;6.076;2023-03-01T04:36:21;22.47;;;12.77;;
37593;SDS011;23441;50.856;6.076;2023-03-01T04:38:51;22.00;;;13.00;;
37593;SDS011;23441;50.856;6.076;2023-03-01T04:41:19;22.00;;;13.33;;
37593;SDS011;23441;50.856;6.076;2023-03-01T04:43:46;24.57;;;13.97;;
37593;SDS011;23441;50.856;6.076;2023-03-01T04:46:13;24.17;;;13.77;;
37593;SDS011;23441;50.856;6.076;2023-03-01T04:48:41;24.37;;;14.30;;
37593;SDS011;23441;50.856;6.076;2023-03-01T04:51:07;21.90;;;13.47;;
37593;SDS011;23441;50.856;6.076;2023-03-01T04:53:34;25.70;;;14.43;;
37593;SDS011;23441;50.856;6.076;2023-03-01T04:56:01;27.03;;;14.17;;
37593;SDS011;23441;50.856;6.076;2023-03-01T04:58:28;27.77;;;14.23;;
37593;SDS011;23441;50.856;6.076;2023-03-01T05:00:54;26.73;;;13.40;;
37593;SDS011;23441;50.856;6.076;2023-03-01T05:03:20;22.17;;;13.73;;
37593;SDS011;23441;50.856;6.076;2023-03-01T05:05:47;21.07;;;12.97;;
37593;SDS011;23441;50.856;6.076;2023-03-01T05:08:15;23.60;;;13.63;;
37593;SDS011;23441;50.856;6.076;2023-03-01T05:10:48;23.73;;;13.87;;
37593;SDS011;23441;50.856;6.076;2023-03-01T05:13:15;25.80;;;13.87;;
37593;SDS011;23441;50.856;6.076;2023-03-01T05:15:46;24.90;;;13.93;;
37593;SDS011;23441;50.856;6.076;2023-03-01T05:18:35;23.57;;;13.13;;
37593;SDS011;23441;50.856;6.076;2023-03-01T05:21:06;23.80;;;15.00;;
37593;SDS011;23441;50.856;6.076;2023-03-01T05:23:41;26.90;;;14.57;;
37593;SDS011;23441;50.856;6.076;2023-03-01T05:26:07;26.60;;;14.43;;
37593;SDS011;23441;50.856;6.076;2023-03-01T05:28:34;30.50;;;15.43;;
37593;SDS011;23441;50.856;6.076;2023-03-01T05:31:00;27.97;;;16.40;;
37593;SDS011;23441;50.856;6.076;2023-03-01T05:33:26;27.63;;;15.53;;
37593;SDS011;23441;50.856;6.076;2023-03-01T05:35:52;25.30;;;15.90;;
37593;SDS011;23441;50.856;6.076;2023-03-01T05:38:19;30.93;;;16.77;;
37593;SDS011;23441;50.856;6.076;2023-03-01T05:40:46;27.63;;;15.83;;
37593;SDS011;23441;50.856;6.076;2023-03-01T05:43:14;26.23;;;15.83;;
37593;SDS011;23441;50.856;6.076;2023-03-01T05:45:41;28.67;;;15.70;;
37593;SDS011;23441;50.856;6.076;2023-03-01T05:48:08;25.10;;;15.73;;
37593;SDS011;23441;50.856;6.076;2023-03-01T05:50:36;28.80;;;17.77;;
37593;SDS011;23441;50.856;6.076;2023-03-01T05:53:09;27.63;;;15.70;;
37593;SDS011;23441;50.856;6.076;2023-03-01T05:55:36;33.50;;;16.07;;
37593;SDS011;23441;50.856;6.076;2023-03-01T05:58:04;28.40;;;15.80;;
37593;SDS011;23441;50.856;6.076;2023-03-01T06:00:31;29.33;;;16.73;;
37593;SDS011;23441;50.856;6.076;2023-03-01T06:02:58;27.00;;;15.93;;
37593;SDS011;23441;50.856;6.076;2023-03-01T06:05:24;30.37;;;15.67;;
37593;SDS011;23441;50.856;6.076;2023-03-01T06:07:50;24.87;;;15.67;;
37593;SDS011;23441;50.856;6.076;2023-03-01T06:10:18;29.30;;;15.87;;
37593;SDS011;23441;50.856;6.076;2023-03-01T06:12:44;27.97;;;15.50;;
37593;SDS011;23441;50.856;6.076;2023-03-01T06:15:11;26.10;;;15.93;;
37593;SDS011;23441;50.856;6.076;2023-03-01T06:17:39;25.63;;;15.10;;
37593;SDS011;23441;50.856;6.076;2023-03-01T06:20:08;22.73;;;14.83;;
37593;SDS011;23441;50.856;6.076;2023-03-01T06:22:42;24.47;;;13.67;;
37593;SDS011;23441;50.856;6.076;2023-03-01T06:25:08;25.93;;;14.90;;
37593;SDS011;23441;50.856;6.076;2023-03-01T06:27:35;28.33;;;14.33;;
37593;SDS011;23441;50.856;6.076;2023-03-01T06:30:01;29.70;;;15.00;;
37593;SDS011;23441;50.856;6.076;2023-03-01T06:32:27;21.73;;;13.80;;
37593;SDS011;23441;50.856;6.076;2023-03-01T06:34:53;26.93;;;15.80;;
37593;SDS011;23441;50.856;6.076;2023-03-01T06:37:19;24.47;;;14.10;;
37593;SDS011;23441;50.856;6.076;2023-03-01T06:39:44;24.43;;;13.87;;
37593;SDS011;23441;50.856;6.076;2023-03-01T06:42:10;22.83;;;14.37;;
37593;SDS011;23441;50.856;6.076;2023-03-01T06:44:36;25.17;;;13.97;;
37593;SDS011;23441;50.856;6.076;2023-03-01T06:47:02;24.57;;;14.50;;
37593;SDS011;23441;50.856;6.076;2023-03-01T06:49:28;26.80;;;15.87;;
37593;SDS011;23441;50.856;6.076;2023-03-01T06:51:54;25.23;;;14.47;;
37593;SDS011;23441;50.856;6.076;2023-03-01T06:54:20;29.00;;;14.53;;
37593;SDS011;23441;50.856;6.076;2023-03-01T06:56:47;28.20;;;15.27;;
37593;SDS011;23441;50.856;6.076;2023-03-01T06:59:14;27.23;;;16.50;;
37593;SDS011;23441;50.856;6.076;2023-03-01T07:01:40;23.77;;;15.40;;
37593;SDS011;23441;50.856;6.076;2023-03-01T07:04:05;25.07;;;14.87;;
37593;SDS011;23441;50.856;6.076;2023-03-01T07:06:31;25.30;;;14.50;;
37593;SDS011;23441;50.856;6.076;2023-03-01T07:08:56;27.67;;;14.93;;
37593;SDS011;23441;50.856;6.076;2023-03-01T07:11:22;22.63;;;15.37;;
37593;SDS011;23441;50.856;6.076;2023-03-01T07:13:48;19.97;;;13.87;;
37593;SDS011;23441;50.856;6.076;2023-03-01T07:16:13;21.97;;;13.30;;
37593;SDS011;23441;50.856;6.076;2023-03-01T07:18:39;23.30;;;13.73;;
37593;SDS011;23441;50.856;6.076;2023-03-01T07:21:06;23.27;;;13.43;;
37593;SDS011;23441;50.856;6.076;2023-03-01T07:23:32;21.13;;;13.20;;
37593;SDS011;23441;50.856;6.076;2023-03-01T07:25:58;24.97;;;14.60;;
37593;SDS011;23441;50.856;6.076;2023-03-01T07:28:25;23.13;;;14.33;;
37593;SDS011;23441;50.856;6.076;2023-03-01T07:30:51;25.23;;;14.43;;
37593;SDS011;23441;50.856;6.076;2023-03-01T07:33:17;23.53;;;15.43;;
37593;SDS011;23441;50.856;6.076;2023-03-01T07:35:43;27.43;;;14.93;;
37593;SDS011;23441;50.856;6.076;2023-03-01T07:38:08;27.00;;;14.80;;
37593;SDS011;23441;50.856;6.076;2023-03-01T07:40:34;23.60;;;14.13;;
37593;SDS011;23441;50.856;6.076;2023-03-01T07:43:00;22.60;;;14.17;;
37593;SDS011;23441;50.856;6.076;2023-03-01T07:45:26;23.83;;;14.23;;
37593;SDS011;23441;50.856;6.076;2023-03-01T07:47:53;24.67;;;14.50;;
37593;SDS011;23441;50.856;6.076;2023-03-01T07:50:19;22.93;;;14.80;;
37593;SDS011;23441;50.856;6.076;2023-03-01T07:52:46;22.83;;;14.30;;
37593;SDS011;23441;50.856;6.076;2023-03-01T07:55:13;26.10;;;14.03;;
37593;SDS011;23441;50.856;6.076;2023-03-01T07:57:39;25.47;;;12.63;;
37593;SDS011;23441;50.856;6.076;2023-03-01T08:00:05;23.20;;;12.50;;
37593;SDS011;23441;50.856;6.076;2023-03-01T08:02:32;16.90;;;12.10;;
37593;SDS011;23441;50.856;6.076;2023-03-01T08:04:58;19.87;;;12.20;;
37593;SDS011;23441;50.856;6.076;2023-03-01T08:07:23;19.53;;;13.57;;
37593;SDS011;23441;50.856;6.076;2023-03-01T08:09:49;21.37;;;13.37;;
37593;SDS011;23441;50.856;6.076;2023-03-01T08:12:15;23.25;;;13.75;;
37593;SDS011;23441;50.856;6.076;2023-03-01T08:14:41;21.53;;;14.60;;
37593;SDS011;23441;50.856;6.076;2023-03-01T08:17:07;26.40;;;14.37;;
37593;SDS011;23441;50.856;6.076;2023-03-01T08:19:33;23.07;;;14.00;;
37593;SDS011;23441;50.856;6.076;2023-03-01T08:22:00;21.43;;;13.80;;
37593;SDS011;23441;50.856;6.076;2023-03-01T08:24:27;26.33;;;16.33;;
37593;SDS011;23441;50.856;6.076;2023-03-01T08:26:53;25.10;;;14.80;;
37593;SDS011;23441;50.856;6.076;2023-03-01T08:29:19;22.17;;;13.73;;
37593;SDS011;23441;50.856;6.076;2023-03-01T08:31:45;20.47;;;14.17;;
37593;SDS011;23441;50.856;6.076;2023-03-01T08:34:12;24.60;;;14.47;;
37593;SDS011;23441;50.856;6.076;2023-03-01T08:36:40;24.17;;;13.90;;
37593;SDS011;23441;50.856;6.076;2023-03-01T08:39:08;25.50;;;14.67;;
37593;SDS011;23441;50.856;6.076;2023-03-01T08:41:35;25.77;;;14.33;;
37593;SDS011;23441;50.856;6.076;2023-03-01T08:44:01;25.20;;;13.93;;
37593;SDS011;23441;50.856;6.076;2023-03-01T08:46:28;23.27;;;14.07;;
37593;SDS011;23441;50.856;6.076;2023-03-01T08:48:55;24.10;;;14.00;;
37593;SDS011;23441;50.856;6.076;2023-03-01T08:51:21;28.13;;;15.70;;
37593;SDS011;23441;50.856;6.076;2023-03-01T08:53:47;23.30;;;14.60;;
37593;SDS011;23441;50.856;6.076;2023-03-01T08:56:14;28.17;;;15.43;;
37593;SDS011;23441;50.856;6.076;2023-03-01T08:58:42;30.33;;;16.20;;
37593;SDS011;23441;50.856;6.076;2023-03-01T09:01:10;26.00;;;14.73;;
37593;SDS011;23441;50.856;6.076;2023-03-01T09:03:36;28.40;;;14.73;;
37593;SDS011;23441;50.856;6.076;2023-03-01T09:06:02;28.07;;;15.47;;
37593;SDS011;23441;50.856;6.076;2023-03-01T09:08:30;27.97;;;15.40;;
37593;SDS011;23441;50.856;6.076;2023-03-01T09:10:56;29.60;;;15.67;;
37593;SDS011;23441;50.856;6.076;2023-03-01T09:13:22;24.40;;;15.17;;
37593;SDS011;23441;50.856;6.076;2023-03-01T09:15:50;25.20;;;14.53;;
37593;SDS011;23441;50.856;6.076;2023-03-01T09:18:16;27.77;;;16.10;;
37593;SDS011;23441;50.856;6.076;2023-03-01T09:20:42;23.50;;;15.13;;
37593;SDS011;23441;50.856;6.076;2023-03-01T09:23:08;29.20;;;15.53;;
37593;SDS011;23441;50.856;6.076;2023-03-01T09:25:34;28.80;;;17.33;;
37593;SDS011;23441;50.856;6.076;2023-03-01T09:28:00;24.10;;;14.63;;
37593;SDS011;23441;50.856;6.076;2023-03-01T09:30:25;33.53;;;16.70;;
37593;SDS011;23441;50.856;6.076;2023-03-01T09:32:51;25.97;;;14.83;;
37593;SDS011;23441;50.856;6.076;2023-03-01T09:35:17;26.47;;;14.80;;
37593;SDS011;23441;50.856;6.076;2023-03-01T09:37:45;23.60;;;14.60;;
37593;SDS011;23441;50.856;6.076;2023-03-01T09:40:15;31.30;;;15.30;;
37593;SDS011;23441;50.856;6.076;2023-03-01T09:45:37;25.93;;;14.30;;
37593;SDS011;23441;50.856;6.076;2023-03-01T09:48:16;27.13;;;14.57;;
37593;SDS011;23441;50.856;6.076;2023-03-01T09:50:47;27.50;;;15.37;;
37593;SDS011;23441;50.856;6.076;2023-03-01T09:53:13;23.60;;;14.70;;
37593;SDS011;23441;50.856;6.076;2023-03-01T09:55:46;23.93;;;14.97;;
37593;SDS011;23441;50.856;6.076;2023-03-01T10:00:56;26.17;;;14.80;;
37593;SDS011;23441;50.856;6.076;2023-03-01T10:03:28;24.37;;;14.40;;
37593;SDS011;23441;50.856;6.076;2023-03-01T10:06:06;23.40;;;13.30;;
37593;SDS011;23441;50.856;6.076;2023-03-01T10:08:58;27.37;;;12.70;;
37593;SDS011;23441;50.856;6.076;2023-03-01T10:11:38;26.47;;;15.20;;
37593;SDS011;23441;50.856;6.076;2023-03-01T10:17:09;26.63;;;12.63;;
37593;SDS011;23441;50.856;6.076;2023-03-01T10:19:41;25.87;;;15.30;;
37593;SDS011;23441;50.856;6.076;2023-03-01T10:22:16;28.53;;;14.53;;
37593;SDS011;23441;50.856;6.076;2023-03-01T10:24:51;23.77;;;13.23;;
37593;SDS011;23441;50.856;6.076;2023-03-01T10:27:24;22.83;;;13.80;;
37593;SDS011;23441;50.856;6.076;2023-03-01T10:30:19;27.20;;;13.87;;
37593;SDS011;23441;50.856;6.076;2023-03-01T10:32:55;20.47;;;13.43;;
37593;SDS011;23441;50.856;6.076;2023-03-01T10:35:27;23.53;;;13.63;;
37593;SDS011;23441;50.856;6.076;2023-03-01T10:37:58;26.43;;;13.37;;
37593;SDS011;23441;50.856;6.076;2023-03-01T10:40:32;22.73;;;12.60;;
37593;SDS011;23441;50.856;6.076;2023-03-01T10:43:00;25.83;;;14.10;;
37593;SDS011;23441;50.856;6.076;2023-03-01T10:50:33;22.80;;;13.30;;
37593;SDS011;23441;50.856;6.076;2023-03-01T10:53:03;22.90;;;13.00;;
37593;SDS011;23441;50.856;6.076;2023-03-01T10:58:15;32.30;;;13.20;;
37593;SDS011;23441;50.856;6.076;2023-03-01T11:03:32;22.80;;;13.43;;
37593;SDS011;23441;50.856;6.076;2023-03-01T11:08:45;24.63;;;13.53;;
37593;SDS011;23441;50.856;6.076;2023-03-01T11:16:26;24.97;;;13.07;;
37593;SDS011;23441;50.856;6.076;2023-03-01T11:21:34;24.23;;;14.10;;
37593;SDS011;23441;50.856;6.076;2023-03-01T11:24:04;24.17;;;13.30;;
37593;SDS011;23441;50.856;6.076;2023-03-01T11:26:34;23.93;;;13.57;;
37593;SDS011;23441;50.856;6.076;2023-03-01T11:29:05;25.50;;;13.83;;
37593;SDS011;23441;50.856;6.076;2023-03-01T11:31:37;25.10;;;14.50;;
37593;SDS011;23441;50.856;6.076;2023-03-01T11:34:12;23.13;;;13.93;;
37593;SDS011;23441;50.856;6.076;2023-03-01T11:36:52;27.07;;;14.77;;
37593;SDS011;23441;50.856;6.076;2023-03-01T11:39:26;23.90;;;13.93;;
37593;SDS011;23441;50.856;6.076;2023-03-01T11:42:13;23.20;;;13.67;;
37593;SDS011;23441;50.856;6.076;2023-03-01T11:44:39;24.47;;;14.37;;
37593;SDS011;23441;50.856;6.076;2023-03-01T12:03:33;22.53;;;13.67;;
37593;SDS011;23441;50.856;6.076;2023-03-01T12:09:06;26.37;;;14.30;;
37593;SDS011;23441;50.856;6.076;2023-03-01T12:27:46;22.63;;;14.13;;
37593;SDS011;23441;50.856;6.076;2023-03-01T12:33:48;22.88;;;14.20;;
37593;SDS011;23441;50.856;6.076;2023-03-01T12:39:19;22.00;;;13.63;;
37593;SDS011;23441;50.856;6.076;2023-03-01T12:50:26;26.52;;;14.70;;
37593;SDS011;23441;50.856;6.076;2023-03-01T12:53:13;25.02;;;13.52;;
37593;SDS011;23441;50.856;6.076;2023-03-01T12:56:05;20.25;;;12.98;;
37593;SDS011;23441;50.856;6.076;2023-03-01T13:01:42;23.48;;;11.40;;
37593;SDS011;23441;50.856;6.076;2023-03-01T13:17:49;23.35;;;12.48;;
37593;SDS011;23441;50.856;6.076;2023-03-01T13:20:20;14.85;;;11.45;;
37593;SDS011;23441;50.856;6.076;2023-03-01T13:22:49;17.48;;;11.45;;
37593;SDS011;23441;50.856;6.076;2023-03-01T13:25:29;17.67;;;10.90;;
37593;SDS011;23441;50.856;6.076;2023-03-01T13:28:32;19.42;;;12.38;;
37593;SDS011;23441;50.856;6.076;2023-03-01T13:30:58;18.35;;;12.55;;
37593;SDS011;23441;50.856;6.076;2023-03-01T13:35:51;18.98;;;11.75;;
37593;SDS011;23441;50.856;6.076;2023-03-01T13:41:16;18.77;;;11.70;;
37593;SDS011;23441;50.856;6.076;2023-03-01T13:44:11;19.58;;;11.75;;
37593;SDS011;23441;50.856;6.076;2023-03-01T13:46:38;19.55;;;12.48;;
37593;SDS011;23441;50.856;6.076;2023-03-01T13:49:04;23.02;;;12.35;;
37593;SDS011;23441;50.856;6.076;2023-03-01T13:51:30;17.65;;;11.93;;
37593;SDS011;23441;50.856;6.076;2023-03-01T13:53:56;20.33;;;13.20;;
37593;SDS011;23441;50.856;6.076;2023-03-01T13:56:24;20.33;;;12.23;;
37593;SDS011;23441;50.856;6.076;2023-03-01T13:59:02;20.02;;;12.18;;
37593;SDS011;23441;50.856;6.076;2023-03-01T14:01:32;25.13;;;12.60;;
37593;SDS011;23441;50.856;6.076;2023-03-01T14:04:00;19.30;;;12.55;;
37593;SDS011;23441;50.856;6.076;2023-03-01T14:06:42;18.45;;;12.20;;
37593;SDS011;23441;50.856;6.076;2023-03-01T14:09:10;20.73;;;12.23;;
37593;SDS011;23441;50.856;6.076;2023-03-01T14:19:57;20.02;;;11.20;;
37593;SDS011;23441;50.856;6.076;2023-03-01T14:22:43;22.38;;;11.40;;
37593;SDS011;23441;50.856;6.076;2023-03-01T14:25:21;18.90;;;11.23;;
37593;SDS011;23441;50.856;6.076;2023-03-01T14:27:54;22.48;;;11.38;;
37593;SDS011;23441;50.856;6.076;2023-03-01T14:32:54;22.63;;;11.77;;
37593;SDS011;23441;50.856;6.076;2023-03-01T14:35:22;20.35;;;11.85;;
37593;SDS011;23441;50.856;6.076;2023-03-01T14:37:51;18.08;;;9.90;;
37593;SDS011;23441;50.856;6.076;2023-03-01T14:40:21;17.48;;;11.27;;
37593;SDS011;23441;50.856;6.076;2023-03-01T14:42:53;22.80;;;11.40;;
37593;SDS011;23441;50.856;6.076;2023-03-01T14:45:20;16.20;;;10.20;;
37593;SDS011;23441;50.856;6.076;2023-03-01T14:47:46;17.67;;;11.35;;
37593;SDS011;23441;50.856;6.076;2023-03-01T14:52:48;21.10;;;11.00;;
37593;SDS011;23441;50.856;6.076;2023-03-01T14:55:17;14.35;;;9.73;;
37593;SDS011;23441;50.856;6.076;2023-03-01T14:57:45;14.20;;;9.55;;
37593;SDS011;23441;50.856;6.076;2023-03-01T15:00:16;17.45;;;9.85;;
37593;SDS011;23441;50.856;6.076;2023-03-01T15:02:48;17.83;;;8.85;;
37593;SDS011;23441;50.856;6.076;2023-03-01T15:05:15;16.27;;;9.32;;
37593;SDS011;23441;50.856;6.076;2023-03-01T15:07:48;16.45;;;9.43;;
37593;SDS011;23441;50.856;6.076;2023-03-01T15:10:17;16.90;;;9.77;;
37593;SDS011;23441;50.856;6.076;2023-03-01T15:12:50;11.05;;;8.43;;
37593;SDS011;23441;50.856;6.076;2023-03-01T15:18:02;13.50;;;8.85;;
37593;SDS011;23441;50.856;6.076;2023-03-01T15:20:30;14.45;;;8.25;;
37593;SDS011;23441;50.856;6.076;2023-03-01T15:23:00;13.68;;;8.93;;
37593;SDS011;23441;50.856;6.076;2023-03-01T15:25:27;14.18;;;8.15;;
37593;SDS011;23441;50.856;6.076;2023-03-01T15:27:55;18.33;;;9.85;;
37593;SDS011;23441;50.856;6.076;2023-03-01T15:36:29;16.88;;;8.63;;
37593;SDS011;23441;50.856;6.076;2023-03-01T15:38:58;26.88;;;8.82;;
37593;SDS011;23441;50.856;6.076;2023-03-01T15:41:27;14.32;;;9.23;;
37593;SDS011;23441;50.856;6.076;2023-03-01T15:43:57;13.60;;;8.70;;
37593;SDS011;23441;50.856;6.076;2023-03-01T15:46:34;14.10;;;8.63;;
37593;SDS011;23441;50.856;6.076;2023-03-01T15:49:19;12.30;;;7.93;;
37593;SDS011;23441;50.856;6.076;2023-03-01T15:52:00;14.60;;;8.27;;
37593;SDS011;23441;50.856;6.076;2023-03-01T15:54:27;14.68;;;8.45;;
37593;SDS011;23441;50.856;6.076;2023-03-01T15:56:54;15.43;;;8.70;;
37593;SDS011;23441;50.856;6.076;2023-03-01T15:59:20;10.93;;;8.40;;
37593;SDS011;23441;50.856;6.076;2023-03-01T16:01:47;14.30;;;8.82;;
37593;SDS011;23441;50.856;6.076;2023-03-01T16:04:14;14.27;;;8.43;;
37593;SDS011;23441;50.856;6.076;2023-03-01T16:06:49;16.17;;;7.75;;
37593;SDS011;23441;50.856;6.076;2023-03-01T16:09:19;13.75;;;7.25;;
37593;SDS011;23441;50.856;6.076;2023-03-01T16:11:50;16.75;;;8.80;;
37593;SDS011;23441;50.856;6.076;2023-03-01T16:14:17;13.43;;;7.88;;
37593;SDS011;23441;50.856;6.076;2023-03-01T16:16:43;12.45;;;8.02;;
37593;SDS011;23441;50.856;6.076;2023-03-01T16:19:10;14.68;;;8.63;;
37593;SDS011;23441;50.856;6.076;2023-03-01T16:21:36;15.35;;;7.97;;
37593;SDS011;23441;50.856;6.076;2023-03-01T16:24:02;12.25;;;8.60;;
37593;SDS011;23441;50.856;6.076;2023-03-01T16:26:29;14.65;;;8.52;;
37593;SDS011;23441;50.856;6.076;2023-03-01T16:28:55;15.45;;;8.82;;
37593;SDS011;23441;50.856;6.076;2023-03-01T16:31:22;11.77;;;7.78;;
37593;SDS011;23441;50.856;6.076;2023-03-01T16:33:52;13.70;;;7.97;;
37593;SDS011;23441;50.856;6.076;2023-03-01T16:36:19;16.77;;;8.85;;
37593;SDS011;23441;50.856;6.076;2023-03-01T16:38:48;15.20;;;8.85;;
37593;SDS011;23441;50.856;6.076;2023-03-01T16:41:15;15.65;;;8.93;;
37593;SDS011;23441;50.856;6.076;2023-03-01T16:43:42;15.43;;;8.68;;
37593;SDS011;23441;50.856;6.076;2023-03-01T16:46:19;16.27;;;8.80;;
37593;SDS011;23441;50.856;6.076;2023-03-01T16:48:47;13.20;;;8.88;;
37593;SDS011;23441;50.856;6.076;2023-03-01T16:51:13;15.88;;;9.02;;
37593;SDS011;23441;50.856;6.076;2023-03-01T16:53:39;19.33;;;8.93;;
37593;SDS011;23441;50.856;6.076;2023-03-01T16:56:06;21.42;;;9.38;;
37593;SDS011;23441;50.856;6.076;2023-03-01T16:58:35;14.25;;;8.70;;